sensor_id;sensor_type;location;lat;lon;timestamp;temperature;humidity
3994;DHT22;2011;48.238;13.948;2023-04-25T00:02:00;8.40;99.90
3994;DHT22;2011;48.238;13.948;2023-04-25T00:04:29;8.40;99.90
3994;DHT22;2011;48.238;13.948;2023-04-25T00:06:59;8.40;99.90
3994;DHT22;2011;48.238;13.948;2023-04-25T00:09:28;8.40;99.90
3994;DHT22;2011;48.238;13.948;2023-04-25T00:11:55;8.40;99.90
3994;DHT22;2011;48.238;13.948;2023-04-25T00:14:22;8.40;99.90
3994;DHT22;2011;48.238;13.948;2023-04-25T00:16:49;8.40;99.90
3994;DHT22;2011;48.238;13.948;2023-04-25T00:19:17;8.40;99.90
3994;DHT22;2011;48.238;13.948;2023-04-25T00:21:44;8.30;99.90
3994;DHT22;2011;48.238;13.948;2023-04-25T00:24:12;8.40;99.90
3994;DHT22;2011;48.238;13.948;2023-04-25T00:26:40;8.30;99.90
3994;DHT22;2011;48.238;13.948;2023-04-25T00:29:07;8.30;99.90
3994;DHT22;2011;48.238;13.948;2023-04-25T00:31:34;8.30;99.90
3994;DHT22;2011;48.238;13.948;2023-04-25T00:34:01;8.30;99.90
3994;DHT22;2011;48.238;13.948;2023-04-25T00:36:28;8.30;99.90
3994;DHT22;2011;48.238;13.948;2023-04-25T00:38:55;8.30;99.90
3994;DHT22;2011;48.238;13.948;2023-04-25T00:41:22;8.20;99.90
3994;DHT22;2011;48.238;13.948;2023-04-25T00:43:52;8.20;99.90
3994;DHT22;2011;48.238;13.948;2023-04-25T00:46:20;8.20;99.90
3994;DHT22;2011;48.238;13.948;2023-04-25T00:48:47;8.10;99.90
3994;DHT22;2011;48.238;13.948;2023-04-25T00:51:19;8.00;99.90
3994;DHT22;2011;48.238;13.948;2023-04-25T00:53:46;8.10;99.90
3994;DHT22;2011;48.238;13.948;2023-04-25T00:56:14;8.00;99.90
3994;DHT22;2011;48.238;13.948;2023-04-25T00:58:41;8.00;99.90
3994;DHT22;2011;48.238;13.948;2023-04-25T01:01:10;8.00;99.90
3994;DHT22;2011;48.238;13.948;2023-04-25T01:03:39;7.90;99.90
3994;DHT22;2011;48.238;13.948;2023-04-25T01:06:08;7.80;99.90
3994;DHT22;2011;48.238;13.948;2023-04-25T01:08:36;7.70;99.90
3994;DHT22;2011;48.238;13.948;2023-04-25T01:11:03;7.70;99.90
3994;DHT22;2011;48.238;13.948;2023-04-25T01:13:31;7.60;99.90
3994;DHT22;2011;48.238;13.948;2023-04-25T01:15:58;7.70;99.90
3994;DHT22;2011;48.238;13.948;2023-04-25T01:18:27;7.80;99.90
3994;DHT22;2011;48.238;13.948;2023-04-25T01:20:54;7.90;99.90
3994;DHT22;2011;48.238;13.948;2023-04-25T01:23:23;7.90;99.90
3994;DHT22;2011;48.238;13.948;2023-04-25T01:25:50;8.00;99.90
3994;DHT22;2011;48.238;13.948;2023-04-25T01:28:18;8.00;99.90
3994;DHT22;2011;48.238;13.948;2023-04-25T01:30:46;7.90;99.90
3994;DHT22;2011;48.238;13.948;2023-04-25T01:33:14;7.90;99.90
3994;DHT22;2011;48.238;13.948;2023-04-25T01:35:42;7.90;99.90
3994;DHT22;2011;48.238;13.948;2023-04-25T01:38:09;7.90;99.90
3994;DHT22;2011;48.238;13.948;2023-04-25T01:40:40;7.90;99.90
3994;DHT22;2011;48.238;13.948;2023-04-25T01:43:07;8.00;99.90
3994;DHT22;2011;48.238;13.948;2023-04-25T01:45:36;8.00;99.90
3994;DHT22;2011;48.238;13.948;2023-04-25T01:48:05;8.00;99.90
3994;DHT22;2011;48.238;13.948;2023-04-25T01:50:32;8.10;99.90
3994;DHT22;2011;48.238;13.948;2023-04-25T01:53:00;8.20;99.90
3994;DHT22;2011;48.238;13.948;2023-04-25T01:55:28;8.10;99.90
3994;DHT22;2011;48.238;13.948;2023-04-25T01:57:56;8.20;99.90
3994;DHT22;2011;48.238;13.948;2023-04-25T02:00:24;8.10;99.90
3994;DHT22;2011;48.238;13.948;2023-04-25T02:02:51;8.20;99.90
3994;DHT22;2011;48.238;13.948;2023-04-25T02:05:19;8.10;99.90
3994;DHT22;2011;48.238;13.948;2023-04-25T02:07:47;8.10;99.90
3994;DHT22;2011;48.238;13.948;2023-04-25T02:10:14;8.10;99.90
3994;DHT22;2011;48.238;13.948;2023-04-25T02:12:41;8.00;99.90
3994;DHT22;2011;48.238;13.948;2023-04-25T02:15:10;8.00;99.90
3994;DHT22;2011;48.238;13.948;2023-04-25T02:17:37;8.00;99.90
3994;DHT22;2011;48.238;13.948;2023-04-25T02:20:05;7.90;99.90
3994;DHT22;2011;48.238;13.948;2023-04-25T02:22:33;7.80;99.90
3994;DHT22;2011;48.238;13.948;2023-04-25T02:25:01;7.80;99.90
3994;DHT22;2011;48.238;13.948;2023-04-25T02:27:30;7.70;99.90
3994;DHT22;2011;48.238;13.948;2023-04-25T02:29:57;7.70;99.90
3994;DHT22;2011;48.238;13.948;2023-04-25T02:32:25;7.70;99.90
3994;DHT22;2011;48.238;13.948;2023-04-25T02:34:52;7.70;99.90
3994;DHT22;2011;48.238;13.948;2023-04-25T02:37:20;7.70;99.90
3994;DHT22;2011;48.238;13.948;2023-04-25T02:39:47;7.70;99.90
3994;DHT22;2011;48.238;13.948;2023-04-25T02:42:14;7.70;99.90
3994;DHT22;2011;48.238;13.948;2023-04-25T02:44:41;7.70;99.90
3994;DHT22;2011;48.238;13.948;2023-04-25T02:47:08;7.70;99.90
3994;DHT22;2011;48.238;13.948;2023-04-25T02:49:36;7.60;99.90
3994;DHT22;2011;48.238;13.948;2023-04-25T02:52:03;7.50;99.90
3994;DHT22;2011;48.238;13.948;2023-04-25T02:54:31;7.40;99.90
3994;DHT22;2011;48.238;13.948;2023-04-25T02:56:59;7.40;99.90
3994;DHT22;2011;48.238;13.948;2023-04-25T02:59:26;7.40;99.90
3994;DHT22;2011;48.238;13.948;2023-04-25T03:01:53;7.40;99.90
3994;DHT22;2011;48.238;13.948;2023-04-25T03:04:20;7.40;99.90
3994;DHT22;2011;48.238;13.948;2023-04-25T03:06:51;7.40;99.90
3994;DHT22;2011;48.238;13.948;2023-04-25T03:09:18;7.40;99.90
3994;DHT22;2011;48.238;13.948;2023-04-25T03:11:45;7.40;99.90
3994;DHT22;2011;48.238;13.948;2023-04-25T03:14:13;7.30;99.90
3994;DHT22;2011;48.238;13.948;2023-04-25T03:16:40;7.40;99.90
3994;DHT22;2011;48.238;13.948;2023-04-25T03:19:07;7.30;99.90
3994;DHT22;2011;48.238;13.948;2023-04-25T03:21:35;7.30;99.90
3994;DHT22;2011;48.238;13.948;2023-04-25T03:24:04;7.30;99.90
3994;DHT22;2011;48.238;13.948;2023-04-25T03:26:32;7.30;99.90
3994;DHT22;2011;48.238;13.948;2023-04-25T03:28:59;7.30;99.90
3994;DHT22;2011;48.238;13.948;2023-04-25T03:31:26;7.30;99.90
3994;DHT22;2011;48.238;13.948;2023-04-25T03:33:53;7.30;99.90
3994;DHT22;2011;48.238;13.948;2023-04-25T03:36:20;7.20;99.90
3994;DHT22;2011;48.238;13.948;2023-04-25T03:38:47;7.30;99.90
3994;DHT22;2011;48.238;13.948;2023-04-25T03:41:15;7.20;99.90
3994;DHT22;2011;48.238;13.948;2023-04-25T03:43:42;7.50;99.90
3994;DHT22;2011;48.238;13.948;2023-04-25T03:46:09;7.20;99.90
3994;DHT22;2011;48.238;13.948;2023-04-25T03:48:36;7.20;99.90
3994;DHT22;2011;48.238;13.948;2023-04-25T03:51:04;7.10;99.90
3994;DHT22;2011;48.238;13.948;2023-04-25T03:53:30;7.10;99.90
3994;DHT22;2011;48.238;13.948;2023-04-25T03:55:58;7.10;99.90
3994;DHT22;2011;48.238;13.948;2023-04-25T03:58:26;7.00;99.90
3994;DHT22;2011;48.238;13.948;2023-04-25T04:00:53;7.00;99.90
3994;DHT22;2011;48.238;13.948;2023-04-25T04:03:20;7.00;99.90
3994;DHT22;2011;48.238;13.948;2023-04-25T04:05:47;7.10;99.90
3994;DHT22;2011;48.238;13.948;2023-04-25T04:08:14;7.10;99.90
3994;DHT22;2011;48.238;13.948;2023-04-25T04:10:41;7.10;99.90
3994;DHT22;2011;48.238;13.948;2023-04-25T04:13:08;7.10;99.90
3994;DHT22;2011;48.238;13.948;2023-04-25T04:15:37;7.10;99.90
3994;DHT22;2011;48.238;13.948;2023-04-25T04:18:04;7.20;99.90
3994;DHT22;2011;48.238;13.948;2023-04-25T04:20:31;7.20;99.90
3994;DHT22;2011;48.238;13.948;2023-04-25T04:22:58;7.20;99.90
3994;DHT22;2011;48.238;13.948;2023-04-25T04:25:26;7.20;99.90
3994;DHT22;2011;48.238;13.948;2023-04-25T04:27:54;7.20;99.90
3994;DHT22;2011;48.238;13.948;2023-04-25T04:30:21;7.20;99.90
3994;DHT22;2011;48.238;13.948;2023-04-25T04:32:51;7.20;99.90
3994;DHT22;2011;48.238;13.948;2023-04-25T04:35:18;7.30;99.90
3994;DHT22;2011;48.238;13.948;2023-04-25T04:37:45;7.30;99.90
3994;DHT22;2011;48.238;13.948;2023-04-25T04:40:13;7.30;99.90
3994;DHT22;2011;48.238;13.948;2023-04-25T04:42:41;7.30;99.90
3994;DHT22;2011;48.238;13.948;2023-04-25T04:45:09;7.40;99.90
3994;DHT22;2011;48.238;13.948;2023-04-25T04:47:36;7.40;99.90
3994;DHT22;2011;48.238;13.948;2023-04-25T04:50:07;7.40;99.90
3994;DHT22;2011;48.238;13.948;2023-04-25T04:52:35;7.40;99.90
3994;DHT22;2011;48.238;13.948;2023-04-25T04:55:03;7.40;99.90
3994;DHT22;2011;48.238;13.948;2023-04-25T04:57:31;7.50;99.90
3994;DHT22;2011;48.238;13.948;2023-04-25T04:59:58;7.60;99.90
3994;DHT22;2011;48.238;13.948;2023-04-25T05:02:26;7.70;99.90
3994;DHT22;2011;48.238;13.948;2023-04-25T05:04:53;7.70;99.90
3994;DHT22;2011;48.238;13.948;2023-04-25T05:07:21;7.70;99.90
3994;DHT22;2011;48.238;13.948;2023-04-25T05:09:48;7.80;99.90
3994;DHT22;2011;48.238;13.948;2023-04-25T05:12:15;7.80;99.90
3994;DHT22;2011;48.238;13.948;2023-04-25T05:14:42;7.90;99.90
3994;DHT22;2011;48.238;13.948;2023-04-25T05:17:09;7.90;99.90
3994;DHT22;2011;48.238;13.948;2023-04-25T05:19:36;7.90;99.90
3994;DHT22;2011;48.238;13.948;2023-04-25T05:22:03;8.00;99.90
3994;DHT22;2011;48.238;13.948;2023-04-25T05:24:32;8.00;99.90
3994;DHT22;2011;48.238;13.948;2023-04-25T05:26:59;8.10;99.90
3994;DHT22;2011;48.238;13.948;2023-04-25T05:29:26;8.10;99.90
3994;DHT22;2011;48.238;13.948;2023-04-25T05:31:53;8.10;99.90
3994;DHT22;2011;48.238;13.948;2023-04-25T05:34:20;8.20;99.90
3994;DHT22;2011;48.238;13.948;2023-04-25T05:36:47;8.20;99.90
3994;DHT22;2011;48.238;13.948;2023-04-25T05:39:15;8.20;99.90
3994;DHT22;2011;48.238;13.948;2023-04-25T05:41:43;8.20;99.90
3994;DHT22;2011;48.238;13.948;2023-04-25T05:44:10;8.30;99.90
3994;DHT22;2011;48.238;13.948;2023-04-25T05:46:37;8.40;99.90
3994;DHT22;2011;48.238;13.948;2023-04-25T05:49:04;8.60;99.90
3994;DHT22;2011;48.238;13.948;2023-04-25T05:51:31;8.80;99.90
3994;DHT22;2011;48.238;13.948;2023-04-25T05:53:58;9.10;99.90
3994;DHT22;2011;48.238;13.948;2023-04-25T05:56:25;9.20;99.90
3994;DHT22;2011;48.238;13.948;2023-04-25T05:58:54;9.40;99.90
3994;DHT22;2011;48.238;13.948;2023-04-25T06:01:22;9.50;99.90
3994;DHT22;2011;48.238;13.948;2023-04-25T06:03:49;9.40;99.90
3994;DHT22;2011;48.238;13.948;2023-04-25T06:06:17;9.30;99.90
3994;DHT22;2011;48.238;13.948;2023-04-25T06:08:44;9.20;99.90
3994;DHT22;2011;48.238;13.948;2023-04-25T06:11:11;9.10;99.90
3994;DHT22;2011;48.238;13.948;2023-04-25T06:13:38;9.10;99.90
3994;DHT22;2011;48.238;13.948;2023-04-25T06:16:07;9.10;99.90
3994;DHT22;2011;48.238;13.948;2023-04-25T06:18:34;9.00;99.90
3994;DHT22;2011;48.238;13.948;2023-04-25T06:21:01;9.10;99.90
3994;DHT22;2011;48.238;13.948;2023-04-25T06:23:28;9.10;99.90
3994;DHT22;2011;48.238;13.948;2023-04-25T06:25:55;9.10;99.90
3994;DHT22;2011;48.238;13.948;2023-04-25T06:28:22;9.10;99.90
3994;DHT22;2011;48.238;13.948;2023-04-25T06:30:50;9.20;99.90
3994;DHT22;2011;48.238;13.948;2023-04-25T06:33:18;9.40;99.90
3994;DHT22;2011;48.238;13.948;2023-04-25T06:35:45;9.50;99.90
3994;DHT22;2011;48.238;13.948;2023-04-25T06:38:13;9.60;99.90
3994;DHT22;2011;48.238;13.948;2023-04-25T06:40:40;9.70;99.90
3994;DHT22;2011;48.238;13.948;2023-04-25T06:43:07;9.80;99.90
3994;DHT22;2011;48.238;13.948;2023-04-25T06:45:34;9.90;99.90
3994;DHT22;2011;48.238;13.948;2023-04-25T06:48:01;10.00;99.90
3994;DHT22;2011;48.238;13.948;2023-04-25T06:50:30;10.10;99.90
3994;DHT22;2011;48.238;13.948;2023-04-25T06:52:56;10.20;99.90
3994;DHT22;2011;48.238;13.948;2023-04-25T06:55:24;10.30;99.90
3994;DHT22;2011;48.238;13.948;2023-04-25T06:57:51;10.40;99.90
3994;DHT22;2011;48.238;13.948;2023-04-25T07:00:18;10.40;99.90
3994;DHT22;2011;48.238;13.948;2023-04-25T07:02:45;10.30;99.90
3994;DHT22;2011;48.238;13.948;2023-04-25T07:05:12;10.30;99.90
3994;DHT22;2011;48.238;13.948;2023-04-25T07:07:41;10.30;99.90
3994;DHT22;2011;48.238;13.948;2023-04-25T07:10:08;10.40;99.90
3994;DHT22;2011;48.238;13.948;2023-04-25T07:12:35;10.30;99.90
3994;DHT22;2011;48.238;13.948;2023-04-25T07:15:02;10.40;99.90
3994;DHT22;2011;48.238;13.948;2023-04-25T07:17:32;10.30;99.90
3994;DHT22;2011;48.238;13.948;2023-04-25T07:19:59;10.40;99.90
3994;DHT22;2011;48.238;13.948;2023-04-25T07:22:26;10.30;99.90
3994;DHT22;2011;48.238;13.948;2023-04-25T07:24:55;10.30;99.90
3994;DHT22;2011;48.238;13.948;2023-04-25T07:27:22;10.20;99.90
3994;DHT22;2011;48.238;13.948;2023-04-25T07:29:48;10.20;99.90
3994;DHT22;2011;48.238;13.948;2023-04-25T07:32:15;10.20;99.90
3994;DHT22;2011;48.238;13.948;2023-04-25T07:34:42;10.20;99.90
3994;DHT22;2011;48.238;13.948;2023-04-25T07:37:09;10.30;99.90
3994;DHT22;2011;48.238;13.948;2023-04-25T07:39:36;10.30;99.90
3994;DHT22;2011;48.238;13.948;2023-04-25T07:42:05;10.40;99.90
3994;DHT22;2011;48.238;13.948;2023-04-25T07:44:33;10.50;99.90
3994;DHT22;2011;48.238;13.948;2023-04-25T07:47:04;10.70;99.90
3994;DHT22;2011;48.238;13.948;2023-04-25T07:49:32;10.80;99.90
3994;DHT22;2011;48.238;13.948;2023-04-25T07:52:00;10.90;99.90
3994;DHT22;2011;48.238;13.948;2023-04-25T07:54:27;10.80;99.90
3994;DHT22;2011;48.238;13.948;2023-04-25T07:56:54;10.90;99.90
3994;DHT22;2011;48.238;13.948;2023-04-25T07:59:23;11.00;99.90
3994;DHT22;2011;48.238;13.948;2023-04-25T08:01:50;11.20;99.90
3994;DHT22;2011;48.238;13.948;2023-04-25T08:04:17;11.20;99.90
3994;DHT22;2011;48.238;13.948;2023-04-25T08:06:44;11.30;99.90
3994;DHT22;2011;48.238;13.948;2023-04-25T08:09:12;11.40;99.90
3994;DHT22;2011;48.238;13.948;2023-04-25T08:11:39;11.70;99.90
3994;DHT22;2011;48.238;13.948;2023-04-25T08:14:06;11.90;99.90
3994;DHT22;2011;48.238;13.948;2023-04-25T08:16:34;11.60;99.90
3994;DHT22;2011;48.238;13.948;2023-04-25T08:19:01;11.50;99.90
3994;DHT22;2011;48.238;13.948;2023-04-25T08:21:29;11.50;99.90
3994;DHT22;2011;48.238;13.948;2023-04-25T08:23:57;11.30;99.90
3994;DHT22;2011;48.238;13.948;2023-04-25T08:26:24;11.20;99.90
3994;DHT22;2011;48.238;13.948;2023-04-25T08:28:51;11.10;99.90
3994;DHT22;2011;48.238;13.948;2023-04-25T08:31:18;11.10;99.90
3994;DHT22;2011;48.238;13.948;2023-04-25T08:33:46;11.20;99.90
3994;DHT22;2011;48.238;13.948;2023-04-25T08:36:15;11.20;99.90
3994;DHT22;2011;48.238;13.948;2023-04-25T08:38:43;11.30;99.90
3994;DHT22;2011;48.238;13.948;2023-04-25T08:41:11;11.50;99.90
3994;DHT22;2011;48.238;13.948;2023-04-25T08:43:42;11.80;99.90
3994;DHT22;2011;48.238;13.948;2023-04-25T08:46:09;12.00;99.90
3994;DHT22;2011;48.238;13.948;2023-04-25T08:48:40;12.10;99.90
3994;DHT22;2011;48.238;13.948;2023-04-25T08:51:10;12.30;99.90
3994;DHT22;2011;48.238;13.948;2023-04-25T08:53:41;12.20;99.90
3994;DHT22;2011;48.238;13.948;2023-04-25T08:56:11;11.90;99.90
3994;DHT22;2011;48.238;13.948;2023-04-25T08:58:40;11.60;99.90
3994;DHT22;2011;48.238;13.948;2023-04-25T09:01:08;11.30;99.90
3994;DHT22;2011;48.238;13.948;2023-04-25T09:03:35;11.50;99.90
3994;DHT22;2011;48.238;13.948;2023-04-25T09:06:03;11.70;99.90
3994;DHT22;2011;48.238;13.948;2023-04-25T09:08:31;12.00;99.90
3994;DHT22;2011;48.238;13.948;2023-04-25T09:10:58;12.20;99.90
3994;DHT22;2011;48.238;13.948;2023-04-25T09:13:26;12.30;99.90
3994;DHT22;2011;48.238;13.948;2023-04-25T09:15:55;12.50;99.90
3994;DHT22;2011;48.238;13.948;2023-04-25T09:18:23;12.50;99.90
3994;DHT22;2011;48.238;13.948;2023-04-25T09:20:52;12.50;99.90
3994;DHT22;2011;48.238;13.948;2023-04-25T09:23:20;12.40;99.90
3994;DHT22;2011;48.238;13.948;2023-04-25T09:25:49;12.00;99.30
3994;DHT22;2011;48.238;13.948;2023-04-25T09:28:16;11.90;99.20
3994;DHT22;2011;48.238;13.948;2023-04-25T09:30:49;12.30;99.90
3994;DHT22;2011;48.238;13.948;2023-04-25T09:33:16;12.70;99.90
3994;DHT22;2011;48.238;13.948;2023-04-25T09:35:43;12.70;99.10
3994;DHT22;2011;48.238;13.948;2023-04-25T09:38:12;12.70;99.10
3994;DHT22;2011;48.238;13.948;2023-04-25T09:40:41;12.60;98.30
3994;DHT22;2011;48.238;13.948;2023-04-25T09:43:18;12.40;98.60
3994;DHT22;2011;48.238;13.948;2023-04-25T09:45:45;12.50;99.10
3994;DHT22;2011;48.238;13.948;2023-04-25T09:48:17;12.40;98.00
3994;DHT22;2011;48.238;13.948;2023-04-25T09:50:45;12.50;97.70
3994;DHT22;2011;48.238;13.948;2023-04-25T09:53:12;12.50;98.00
3994;DHT22;2011;48.238;13.948;2023-04-25T09:55:40;12.60;98.20
3994;DHT22;2011;48.238;13.948;2023-04-25T09:58:10;12.60;98.30
3994;DHT22;2011;48.238;13.948;2023-04-25T10:00:41;12.60;97.60
3994;DHT22;2011;48.238;13.948;2023-04-25T10:03:08;12.50;98.20
3994;DHT22;2011;48.238;13.948;2023-04-25T10:05:35;12.60;98.20
3994;DHT22;2011;48.238;13.948;2023-04-25T10:08:04;12.40;97.50
3994;DHT22;2011;48.238;13.948;2023-04-25T10:10:32;12.30;97.90
3994;DHT22;2011;48.238;13.948;2023-04-25T10:13:05;12.30;97.90
3994;DHT22;2011;48.238;13.948;2023-04-25T10:15:35;12.30;98.20
3994;DHT22;2011;48.238;13.948;2023-04-25T10:18:04;12.40;98.70
3994;DHT22;2011;48.238;13.948;2023-04-25T10:20:32;12.40;98.20
3994;DHT22;2011;48.238;13.948;2023-04-25T10:23:06;12.20;98.00
3994;DHT22;2011;48.238;13.948;2023-04-25T10:25:37;12.00;99.90
3994;DHT22;2011;48.238;13.948;2023-04-25T10:28:05;11.90;99.90
3994;DHT22;2011;48.238;13.948;2023-04-25T10:30:32;11.80;99.90
3994;DHT22;2011;48.238;13.948;2023-04-25T10:32:59;11.70;99.90
3994;DHT22;2011;48.238;13.948;2023-04-25T10:35:29;11.50;99.90
3994;DHT22;2011;48.238;13.948;2023-04-25T10:37:58;10.90;99.90
3994;DHT22;2011;48.238;13.948;2023-04-25T10:40:26;10.40;99.90
3994;DHT22;2011;48.238;13.948;2023-04-25T10:42:53;9.90;99.90
3994;DHT22;2011;48.238;13.948;2023-04-25T10:45:20;9.70;99.90
3994;DHT22;2011;48.238;13.948;2023-04-25T10:47:47;9.30;99.90
3994;DHT22;2011;48.238;13.948;2023-04-25T10:50:15;9.10;99.90
3994;DHT22;2011;48.238;13.948;2023-04-25T10:52:44;9.20;99.90
3994;DHT22;2011;48.238;13.948;2023-04-25T10:55:11;9.40;99.90
3994;DHT22;2011;48.238;13.948;2023-04-25T10:57:40;9.60;99.90
3994;DHT22;2011;48.238;13.948;2023-04-25T11:00:18;9.90;99.90
3994;DHT22;2011;48.238;13.948;2023-04-25T11:02:46;10.20;99.90
3994;DHT22;2011;48.238;13.948;2023-04-25T11:05:24;10.40;99.90
3994;DHT22;2011;48.238;13.948;2023-04-25T11:07:56;10.50;99.90
3994;DHT22;2011;48.238;13.948;2023-04-25T11:10:25;10.60;99.90
3994;DHT22;2011;48.238;13.948;2023-04-25T11:12:53;10.90;99.90
3994;DHT22;2011;48.238;13.948;2023-04-25T11:15:19;11.10;99.90
3994;DHT22;2011;48.238;13.948;2023-04-25T11:17:47;11.20;99.90
3994;DHT22;2011;48.238;13.948;2023-04-25T11:20:14;11.40;99.90
3994;DHT22;2011;48.238;13.948;2023-04-25T11:22:42;11.70;99.90
3994;DHT22;2011;48.238;13.948;2023-04-25T11:25:14;11.90;99.90
3994;DHT22;2011;48.238;13.948;2023-04-25T11:27:51;11.90;99.90
3994;DHT22;2011;48.238;13.948;2023-04-25T11:30:19;11.90;99.90
3994;DHT22;2011;48.238;13.948;2023-04-25T11:32:46;12.00;99.90
3994;DHT22;2011;48.238;13.948;2023-04-25T11:35:13;12.20;99.90
3994;DHT22;2011;48.238;13.948;2023-04-25T11:37:41;12.40;99.90
3994;DHT22;2011;48.238;13.948;2023-04-25T11:40:09;12.60;99.90
3994;DHT22;2011;48.238;13.948;2023-04-25T11:42:39;12.90;99.90
3994;DHT22;2011;48.238;13.948;2023-04-25T11:45:10;13.10;99.90
3994;DHT22;2011;48.238;13.948;2023-04-25T11:47:37;13.30;99.90
3994;DHT22;2011;48.238;13.948;2023-04-25T11:50:05;13.50;99.50
3994;DHT22;2011;48.238;13.948;2023-04-25T11:52:40;13.60;97.50
3994;DHT22;2011;48.238;13.948;2023-04-25T11:55:09;13.70;98.50
3994;DHT22;2011;48.238;13.948;2023-04-25T11:57:39;13.70;97.30
3994;DHT22;2011;48.238;13.948;2023-04-25T12:00:09;13.60;96.70
3994;DHT22;2011;48.238;13.948;2023-04-25T12:02:36;13.50;97.60
3994;DHT22;2011;48.238;13.948;2023-04-25T12:05:06;13.60;96.80
3994;DHT22;2011;48.238;13.948;2023-04-25T12:07:33;13.80;96.40
3994;DHT22;2011;48.238;13.948;2023-04-25T12:10:05;13.60;96.00
3994;DHT22;2011;48.238;13.948;2023-04-25T12:12:33;13.80;95.80
3994;DHT22;2011;48.238;13.948;2023-04-25T12:15:10;13.60;94.50
3994;DHT22;2011;48.238;13.948;2023-04-25T12:17:38;12.80;95.90
3994;DHT22;2011;48.238;13.948;2023-04-25T12:20:10;12.10;96.80
3994;DHT22;2011;48.238;13.948;2023-04-25T12:22:37;11.20;96.90
3994;DHT22;2011;48.238;13.948;2023-04-25T12:25:10;11.00;97.70
3994;DHT22;2011;48.238;13.948;2023-04-25T12:27:37;10.70;98.00
3994;DHT22;2011;48.238;13.948;2023-04-25T12:30:06;10.80;99.20
3994;DHT22;2011;48.238;13.948;2023-04-25T12:32:36;10.80;99.50
3994;DHT22;2011;48.238;13.948;2023-04-25T12:35:04;10.80;99.20
3994;DHT22;2011;48.238;13.948;2023-04-25T12:37:32;10.80;99.60
3994;DHT22;2011;48.238;13.948;2023-04-25T12:39:59;10.80;99.80
3994;DHT22;2011;48.238;13.948;2023-04-25T12:42:26;10.70;99.30
3994;DHT22;2011;48.238;13.948;2023-04-25T12:44:53;10.70;99.60
3994;DHT22;2011;48.238;13.948;2023-04-25T12:47:20;10.70;99.90
3994;DHT22;2011;48.238;13.948;2023-04-25T12:49:48;10.80;99.90
3994;DHT22;2011;48.238;13.948;2023-04-25T12:52:15;10.80;99.90
3994;DHT22;2011;48.238;13.948;2023-04-25T12:54:42;10.80;99.90
3994;DHT22;2011;48.238;13.948;2023-04-25T12:57:08;10.70;99.90
3994;DHT22;2011;48.238;13.948;2023-04-25T12:59:36;10.50;99.90
3994;DHT22;2011;48.238;13.948;2023-04-25T13:02:03;10.10;99.90
3994;DHT22;2011;48.238;13.948;2023-04-25T13:04:30;9.70;99.90
3994;DHT22;2011;48.238;13.948;2023-04-25T13:06:58;9.60;99.90
3994;DHT22;2011;48.238;13.948;2023-04-25T13:09:25;9.50;99.90
3994;DHT22;2011;48.238;13.948;2023-04-25T13:11:52;9.40;99.90
3994;DHT22;2011;48.238;13.948;2023-04-25T13:14:19;9.40;99.90
3994;DHT22;2011;48.238;13.948;2023-04-25T13:16:46;9.40;99.90
3994;DHT22;2011;48.238;13.948;2023-04-25T13:19:14;9.30;99.90
3994;DHT22;2011;48.238;13.948;2023-04-25T13:21:41;9.40;99.90
3994;DHT22;2011;48.238;13.948;2023-04-25T13:24:09;9.40;99.90
3994;DHT22;2011;48.238;13.948;2023-04-25T13:26:36;9.50;99.90
3994;DHT22;2011;48.238;13.948;2023-04-25T13:29:03;9.80;99.90
3994;DHT22;2011;48.238;13.948;2023-04-25T13:31:31;10.00;99.90
3994;DHT22;2011;48.238;13.948;2023-04-25T13:33:58;10.20;99.90
3994;DHT22;2011;48.238;13.948;2023-04-25T13:36:25;10.70;99.90
3994;DHT22;2011;48.238;13.948;2023-04-25T13:38:53;11.20;99.90
3994;DHT22;2011;48.238;13.948;2023-04-25T13:41:21;11.60;99.90
3994;DHT22;2011;48.238;13.948;2023-04-25T13:43:48;12.10;99.90
3994;DHT22;2011;48.238;13.948;2023-04-25T13:46:16;12.50;99.90
3994;DHT22;2011;48.238;13.948;2023-04-25T13:48:43;12.60;99.90
3994;DHT22;2011;48.238;13.948;2023-04-25T13:51:14;12.50;99.90
3994;DHT22;2011;48.238;13.948;2023-04-25T13:53:42;12.30;99.90
3994;DHT22;2011;48.238;13.948;2023-04-25T13:56:09;12.30;99.90
3994;DHT22;2011;48.238;13.948;2023-04-25T13:58:39;12.30;99.90
3994;DHT22;2011;48.238;13.948;2023-04-25T14:01:06;12.10;99.90
3994;DHT22;2011;48.238;13.948;2023-04-25T14:03:33;12.20;99.90
3994;DHT22;2011;48.238;13.948;2023-04-25T14:06:00;12.10;99.90
3994;DHT22;2011;48.238;13.948;2023-04-25T14:08:27;12.10;99.90
3994;DHT22;2011;48.238;13.948;2023-04-25T14:10:54;12.10;99.90
3994;DHT22;2011;48.238;13.948;2023-04-25T14:13:21;12.30;99.90
3994;DHT22;2011;48.238;13.948;2023-04-25T14:15:50;12.50;99.90
3994;DHT22;2011;48.238;13.948;2023-04-25T14:18:17;12.50;99.80
3994;DHT22;2011;48.238;13.948;2023-04-25T14:20:44;12.40;99.90
3994;DHT22;2011;48.238;13.948;2023-04-25T14:23:11;12.40;99.90
3994;DHT22;2011;48.238;13.948;2023-04-25T14:25:38;12.20;99.90
3994;DHT22;2011;48.238;13.948;2023-04-25T14:28:05;12.10;99.90
3994;DHT22;2011;48.238;13.948;2023-04-25T14:30:32;12.10;99.90
3994;DHT22;2011;48.238;13.948;2023-04-25T14:33:00;12.10;99.90
3994;DHT22;2011;48.238;13.948;2023-04-25T14:35:27;12.20;99.90
3994;DHT22;2011;48.238;13.948;2023-04-25T14:37:54;12.30;99.90
3994;DHT22;2011;48.238;13.948;2023-04-25T14:40:22;12.50;99.90
3994;DHT22;2011;48.238;13.948;2023-04-25T14:42:49;12.60;99.90
3994;DHT22;2011;48.238;13.948;2023-04-25T14:45:16;12.40;99.90
3994;DHT22;2011;48.238;13.948;2023-04-25T14:47:43;12.40;99.90
3994;DHT22;2011;48.238;13.948;2023-04-25T14:50:12;12.60;99.90
3994;DHT22;2011;48.238;13.948;2023-04-25T14:52:38;12.80;99.90
3994;DHT22;2011;48.238;13.948;2023-04-25T14:55:06;12.70;99.90
3994;DHT22;2011;48.238;13.948;2023-04-25T14:57:34;12.50;99.90
3994;DHT22;2011;48.238;13.948;2023-04-25T15:00:02;12.50;99.90
3994;DHT22;2011;48.238;13.948;2023-04-25T15:02:30;12.50;99.90
3994;DHT22;2011;48.238;13.948;2023-04-25T15:04:58;12.40;99.90
3994;DHT22;2011;48.238;13.948;2023-04-25T15:07:27;12.30;99.90
3994;DHT22;2011;48.238;13.948;2023-04-25T15:09:53;12.10;99.90
3994;DHT22;2011;48.238;13.948;2023-04-25T15:12:22;12.10;99.90
3994;DHT22;2011;48.238;13.948;2023-04-25T15:14:49;12.10;99.90
3994;DHT22;2011;48.238;13.948;2023-04-25T15:17:16;12.10;99.90
3994;DHT22;2011;48.238;13.948;2023-04-25T15:19:43;12.10;99.60
3994;DHT22;2011;48.238;13.948;2023-04-25T15:22:10;12.00;99.90
3994;DHT22;2011;48.238;13.948;2023-04-25T15:24:38;11.90;99.90
3994;DHT22;2011;48.238;13.948;2023-04-25T15:27:05;11.70;99.90
3994;DHT22;2011;48.238;13.948;2023-04-25T15:29:34;11.70;99.90
3994;DHT22;2011;48.238;13.948;2023-04-25T15:32:01;11.60;99.90
3994;DHT22;2011;48.238;13.948;2023-04-25T15:34:28;11.40;99.90
3994;DHT22;2011;48.238;13.948;2023-04-25T15:36:55;11.30;99.90
3994;DHT22;2011;48.238;13.948;2023-04-25T15:39:23;11.10;99.90
3994;DHT22;2011;48.238;13.948;2023-04-25T15:41:51;11.00;99.90
3994;DHT22;2011;48.238;13.948;2023-04-25T15:44:18;10.80;99.90
3994;DHT22;2011;48.238;13.948;2023-04-25T15:46:45;10.60;99.90
3994;DHT22;2011;48.238;13.948;2023-04-25T15:49:12;10.50;99.90
3994;DHT22;2011;48.238;13.948;2023-04-25T15:51:39;10.60;99.90
3994;DHT22;2011;48.238;13.948;2023-04-25T15:54:06;10.60;99.90
3994;DHT22;2011;48.238;13.948;2023-04-25T15:56:33;10.50;99.90